Wind From: 11-12-2017 06:00 Until: 12-12-2017 06:00 warning for: Wind Level: Orange info button

Power and phone distribution networks may be disrupted for relatively long periods., Roofs and chimneys can be damaged. , Tree branches may break. , Vehicles can be deported. , Traffic may be disrupted, particularly on secondary roads in forest areas. Limit your trips. , Limit your speed in highway driving, especially if you drive a vehicle or hitch sensitive to wind. , Do not go for walks in forests or along the coast., In town, be vigilant against possible falling objects., Do not work on roofs and do not touch any electrical line fallen on the ground., Store or secure sensitive objects to wind or likely to be damaged., Always install power generators outside buildings. 


Meteo18 Weather Cam more information Meteo18 Weather Cam


Thunder radar more information blitzortung!


Rain radar more information rain snow radar


Visit our other weather sites:

Template documentation
and downloads

And another site



Weather Underground History page Text

Daily Summary for November 7, 2017 Units:  Metric    English   Both
« Previous Day
Next Day »
Daily Weekly Monthly Yearly Custom
  High: Low: Average:
Temperature: 8.8 °C -0.4 °C 4.3 °C
Dew Point: 3.3 °C -1.5 °C 1.1 °C
Humidity: 93 % 63 % 81 %
Wind Speed: 16.1 km/h 0.0 km/h 3 km/h
Wind Gust: 22.5 km/h - -
Wind:- - WSW
Pressure: 1024.3 hPa 1018.8 hPa -
Precipitation: 0.0 mm    
Historical Graphs
 
 
Tabular Data for November 7, 2017
Time Temperature Dew Point Pressure Wind Wind Speed Wind Gust Humidity Rainfall Rate (Hourly)
00:02 3.3 °C 1.0 °C 1024.3 hPa North 4.8 km/h 11.3 km/h 85 % 0.0 mm
00:07 3.3 °C 1.0 °C 1024.3 hPa North 6.4 km/h 11.3 km/h 85 % 0.0 mm
00:12 3.3 °C 1.0 °C 1024.3 hPa North 1.6 km/h 9.7 km/h 85 % 0.0 mm
00:17 3.2 °C 0.9 °C 1024.3 hPa NW 6.4 km/h 9.7 km/h 85 % 0.0 mm
00:22 3.2 °C 0.9 °C 1024.3 hPa NNW 4.8 km/h 9.7 km/h 85 % 0.0 mm
00:32 2.9 °C 0.8 °C 1024.3 hPa NNW 1.6 km/h 11.3 km/h 86 % 0.0 mm
00:42 2.9 °C 0.8 °C 1024.3 hPa NNW 3.2 km/h 9.7 km/h 86 % 0.0 mm
00:47 2.9 °C 0.8 °C 1024.3 hPa NW 3.2 km/h 8.0 km/h 86 % 0.0 mm
00:52 2.9 °C 0.8 °C 1023.9 hPa NW 1.6 km/h 8.0 km/h 86 % 0.0 mm
00:57 2.9 °C 0.8 °C 1023.9 hPa NW 1.6 km/h 6.4 km/h 86 % 0.0 mm
01:02 2.9 °C 0.6 °C 1024.3 hPa NW 3.2 km/h 6.4 km/h 85 % 0.0 mm
01:07 2.7 °C 0.4 °C 1024.3 hPa WNW 1.6 km/h 4.8 km/h 85 % 0.0 mm
01:12 2.3 °C 0.2 °C 1024.3 hPa WNW 3.2 km/h 4.8 km/h 86 % 0.0 mm
01:17 2.1 °C 0.2 °C 1024.3 hPa WNW 3.2 km/h 4.8 km/h 87 % 0.0 mm
01:22 2.0 °C 0.2 °C 1024.3 hPa West 1.6 km/h 4.8 km/h 88 % 0.0 mm
01:27 2.0 °C 0.2 °C 1024.3 hPa Calm   4.8 km/h 88 % 0.0 mm
01:32 2.1 °C 0.3 °C 1024.3 hPa WNW 4.8 km/h 4.8 km/h 88 % 0.0 mm
01:37 2.1 °C 0.3 °C 1024.3 hPa WNW 1.6 km/h 4.8 km/h 88 % 0.0 mm
01:42 2.1 °C 0.3 °C 1024.3 hPa West 1.6 km/h 4.8 km/h 88 % 0.0 mm
01:47 1.9 °C 0.0 °C 1024.3 hPa WNW 1.6 km/h 4.8 km/h 87 % 0.0 mm
01:52 1.8 °C 0.0 °C 1024.3 hPa WNW 1.6 km/h 3.2 km/h 88 % 0.0 mm
01:57 1.7 °C -0.1 °C 1024.3 hPa WNW 1.6 km/h 3.2 km/h 88 % 0.0 mm
02:02 1.8 °C 0.0 °C 1024.3 hPa WNW 1.6 km/h 4.8 km/h 88 % 0.0 mm
02:12 2.0 °C 0.2 °C 1024.3 hPa WNW 1.6 km/h 4.8 km/h 88 % 0.0 mm
02:17 2.1 °C 0.3 °C 1024.3 hPa WNW 3.2 km/h 3.2 km/h 88 % 0.0 mm
02:22 2.1 °C 0.3 °C 1024.3 hPa WNW 1.6 km/h 3.2 km/h 88 % 0.0 mm
02:32 2.3 °C 0.5 °C 1024.3 hPa NNW 4.8 km/h 4.8 km/h 88 % 0.0 mm
02:37 2.6 °C 0.8 °C 1024.3 hPa WNW 1.6 km/h 11.3 km/h 88 % 0.0 mm
02:42 2.6 °C 0.7 °C 1024.3 hPa NW 4.8 km/h 11.3 km/h 87 % 0.0 mm
02:47 2.5 °C 0.6 °C 1023.9 hPa Calm   11.3 km/h 87 % 0.0 mm
02:52 2.4 °C 0.5 °C 1023.9 hPa Calm   6.4 km/h 87 % 0.0 mm
02:57 2.3 °C 0.4 °C 1023.9 hPa Calm   6.4 km/h 87 % 0.0 mm
03:02 2.4 °C 0.6 °C 1023.9 hPa Calm   3.2 km/h 88 % 0.0 mm
03:07 2.3 °C 0.5 °C 1023.9 hPa NNW 1.6 km/h 4.8 km/h 88 % 0.0 mm
03:12 2.3 °C 0.5 °C 1023.9 hPa North 4.8 km/h 4.8 km/h 88 % 0.0 mm
03:17 2.3 °C 0.5 °C 1023.6 hPa NNW 3.2 km/h 8.0 km/h 88 % 0.0 mm
03:22 2.4 °C 0.6 °C 1023.6 hPa NNW 3.2 km/h 8.0 km/h 88 % 0.0 mm
03:27 2.5 °C 0.7 °C 1023.6 hPa NW 1.6 km/h 11.3 km/h 88 % 0.0 mm
03:32 2.5 °C 0.7 °C 1023.6 hPa NNW 1.6 km/h 11.3 km/h 88 % 0.0 mm
03:37 2.4 °C 0.5 °C 1023.6 hPa NNW 3.2 km/h 11.3 km/h 87 % 0.0 mm
03:42 2.3 °C 0.5 °C 1023.6 hPa WNW 6.4 km/h 8.0 km/h 88 % 0.0 mm
03:47 2.2 °C 0.4 °C 1023.6 hPa NNW 3.2 km/h 6.4 km/h 88 % 0.0 mm
03:52 1.8 °C 0.0 °C 1023.2 hPa NNW 4.8 km/h 6.4 km/h 88 % 0.0 mm
03:57 1.8 °C 0.0 °C 1023.2 hPa NNW 4.8 km/h 6.4 km/h 88 % 0.0 mm
04:02 1.8 °C 0.0 °C 1023.2 hPa NNW 4.8 km/h 6.4 km/h 88 % 0.0 mm
08:07 1.2 °C 0.2 °C 1022.2 hPa NNW 1.6 km/h -1607.4 km/h 93 % 0 mm
08:12 1.3 °C 0.3 °C 1022.2 hPa NNW 1.6 km/h 3.2 km/h 93 % 0.0 mm
08:17 1.4 °C 0.2 °C 1022.2 hPa Calm   3.2 km/h 92 % 0.0 mm
08:22 1.4 °C 0.2 °C 1022.2 hPa NW 1.6 km/h 4.8 km/h 92 % 0.0 mm
08:32 1.3 °C 0.1 °C 1022.2 hPa NW 3.2 km/h 4.8 km/h 92 % 0.0 mm
08:37 1.5 °C 0.3 °C 1022.2 hPa NW 3.2 km/h 6.4 km/h 92 % 0.0 mm
08:42 1.6 °C 0.4 °C 1022.2 hPa WNW 1.6 km/h 6.4 km/h 92 % 0.0 mm
08:47 1.8 °C 0.6 °C 1022.6 hPa Calm   6.4 km/h 92 % 0.0 mm
08:52 2.0 °C 0.8 °C 1022.6 hPa Calm   4.8 km/h 92 % 0.0 mm
08:57 2.2 °C 1.0 °C 1022.6 hPa Calm   4.8 km/h 92 % 0.0 mm
09:02 2.4 °C 1.1 °C 1022.6 hPa Calm   1.6 km/h 91 % 0.0 mm
09:12 2.8 °C 1.5 °C 1022.2 hPa Calm     91 % 0.0 mm
09:17 3.2 °C 1.9 °C 1022.2 hPa NNW 1.6 km/h   91 % 0.0 mm
09:22 3.4 °C 1.9 °C 1022.2 hPa WNW 3.2 km/h 3.2 km/h 90 % 0.0 mm
09:27 3.7 °C 2.2 °C 1022.2 hPa Calm   4.8 km/h 90 % 0.0 mm
09:37 4.2 °C 2.2 °C 1022.2 hPa Calm   4.8 km/h 87 % 0.0 mm
09:42 4.4 °C 2.4 °C 1022.2 hPa Calm   3.2 km/h 87 % 0.0 mm
09:47 4.8 °C 2.8 °C 1022.2 hPa Calm   3.2 km/h 87 % 0.0 mm
09:52 5.1 °C 2.8 °C 1022.2 hPa North 1.6 km/h 1.6 km/h 85 % 0.0 mm
09:57 5.1 °C 2.6 °C 1022.2 hPa North 1.6 km/h 8.0 km/h 84 % 0.0 mm
10:02 5.1 °C 2.6 °C 1022.2 hPa ENE 3.2 km/h 8.0 km/h 84 % 0.0 mm
10:12 5.4 °C 2.9 °C 1022.2 hPa North 1.6 km/h 9.7 km/h 84 % 0.0 mm
10:17 5.7 °C 3.2 °C 1021.9 hPa NW 3.2 km/h 9.7 km/h 84 % 0.0 mm
10:22 5.7 °C 2.7 °C 1022.2 hPa NNW 8.0 km/h 12.9 km/h 81 % 0.0 mm
10:27 5.9 °C 2.9 °C 1021.9 hPa North 4.8 km/h 12.9 km/h 81 % 0.0 mm
10:32 5.9 °C 2.7 °C 1021.9 hPa NNW 4.8 km/h 12.9 km/h 80 % 0.0 mm
10:37 6.1 °C 2.9 °C 1021.9 hPa NNW 4.8 km/h 12.9 km/h 80 % 0.0 mm
10:42 6.2 °C 2.8 °C 1021.9 hPa NNW 9.7 km/h 14.5 km/h 79 % 0.0 mm
10:47 6.4 °C 2.8 °C 1021.9 hPa NE 1.6 km/h 14.5 km/h 78 % 0.0 mm
10:57 6.7 °C 2.8 °C 1021.9 hPa NNE 1.6 km/h 14.5 km/h 76 % 0.0 mm
11:02 6.8 °C 2.9 °C 1021.9 hPa NNW 3.2 km/h 14.5 km/h 76 % 0.0 mm
11:07 6.9 °C 3.0 °C 1021.9 hPa NNW 6.4 km/h 14.5 km/h 76 % 0.0 mm
11:12 7.1 °C 3.3 °C 1021.9 hPa NW 4.8 km/h 12.9 km/h 77 % 0.0 mm
11:17 7.3 °C 3.2 °C 1021.9 hPa NNE 8.0 km/h 14.5 km/h 75 % 0.0 mm
11:27 7.3 °C 3.0 °C 1021.9 hPa NNW 8.0 km/h 19.3 km/h 74 % 0.0 mm
11:32 7.3 °C 3.0 °C 1021.9 hPa North 8.0 km/h 19.3 km/h 74 % 0.0 mm
11:37 7.4 °C 3.1 °C 1021.6 hPa North 6.4 km/h 19.3 km/h 74 % 0.0 mm
11:42 7.3 °C 2.6 °C 1021.6 hPa NNW 9.7 km/h 19.3 km/h 72 % 0.0 mm
11:47 7.3 °C 2.8 °C 1021.6 hPa North 12.9 km/h 19.3 km/h 73 % 0.0 mm
11:52 7.3 °C 2.6 °C 1021.6 hPa NNW 11.3 km/h 19.3 km/h 72 % 0.0 mm
11:57 7.5 °C 3.2 °C 1021.6 hPa NNE 4.8 km/h 19.3 km/h 74 % 0.0 mm
12:02 7.6 °C 2.9 °C 1021.2 hPa NNW 11.3 km/h 19.3 km/h 72 % 0.0 mm
12:07 7.6 °C 3.3 °C 1021.2 hPa NNE 8.0 km/h 19.3 km/h 74 % 0.0 mm
12:12 7.7 °C 3.2 °C 1021.2 hPa NW 3.2 km/h 17.7 km/h 73 % 0.0 mm
12:17 7.8 °C 3.1 °C 1021.2 hPa NW 3.2 km/h 17.7 km/h 72 % 0.0 mm
12:22 7.8 °C 2.7 °C 1021.2 hPa NNE 3.2 km/h 17.7 km/h 70 % 0.0 mm
12:27 7.9 °C 2.8 °C 1021.2 hPa NW 6.4 km/h 17.7 km/h 70 % 0.0 mm
12:42 7.9 °C 2.4 °C 1020.9 hPa NNE 12.9 km/h 20.9 km/h 68 % 0.0 mm
12:47 7.8 °C 2.3 °C 1020.9 hPa North 11.3 km/h 20.9 km/h 68 % 0.0 mm
12:52 7.9 °C 2.2 °C 1020.9 hPa North 11.3 km/h 19.3 km/h 67 % 0.0 mm
12:57 8.0 °C 2.5 °C 1020.5 hPa North 8.0 km/h 22.5 km/h 68 % 0.0 mm
13:02 8.0 °C 2.0 °C 1020.5 hPa NNE 9.7 km/h 22.5 km/h 66 % 0.0 mm
13:07 8.0 °C 1.8 °C 1020.5 hPa NNE 12.9 km/h 22.5 km/h 65 % 0.0 mm
13:12 8.1 °C 2.3 °C 1020.5 hPa NNW 11.3 km/h 22.5 km/h 67 % 0.0 mm
13:17 8.2 °C 2.2 °C 1020.2 hPa NW 11.3 km/h 22.5 km/h 66 % 0.0 mm
13:22 8.1 °C 1.9 °C 1020.2 hPa NNW 11.3 km/h 22.5 km/h 65 % 0.0 mm
13:27 8.2 °C 2.4 °C 1020.2 hPa NE 16.1 km/h 20.9 km/h 67 % 0.0 mm
13:32 8.3 °C 2.1 °C 1020.2 hPa North 11.3 km/h 19.3 km/h 65 % 0.0 mm
13:37 8.3 °C 2.1 °C 1020.2 hPa NNW 4.8 km/h 19.3 km/h 65 % 0.0 mm
13:42 8.4 °C 2.0 °C 1020.2 hPa NNW 1.6 km/h 19.3 km/h 64 % 0.0 mm
13:47 8.3 °C 2.1 °C 1020.2 hPa NNW 6.4 km/h 17.7 km/h 65 % 0.0 mm
13:52 8.3 °C 2.1 °C 1020.2 hPa North 9.7 km/h 17.7 km/h 65 % 0.0 mm
13:57 8.3 °C 1.7 °C 1020.2 hPa North 6.4 km/h 17.7 km/h 63 % 0.0 mm
14:02 8.4 °C 2.4 °C 1019.9 hPa NNW 8.0 km/h 16.1 km/h 66 % 0.0 mm
14:07 8.3 °C 2.1 °C 1019.9 hPa NW 4.8 km/h 16.1 km/h 65 % 0.0 mm
14:12 8.4 °C 2.4 °C 1019.9 hPa NNE 1.6 km/h 19.3 km/h 66 % 0.0 mm
14:22 8.5 °C 2.3 °C 1019.9 hPa NNW 6.4 km/h 19.3 km/h 65 % 0.0 mm
14:27 8.6 °C 2.2 °C 1019.9 hPa North 11.3 km/h 14.5 km/h 64 % 0.0 mm
14:32 8.5 °C 2.1 °C 1019.9 hPa North 11.3 km/h 16.1 km/h 64 % 0.0 mm
14:37 8.4 °C 2.2 °C 1019.9 hPa North 12.9 km/h 16.1 km/h 65 % 0.0 mm
14:42 8.5 °C 2.5 °C 1019.9 hPa WNW 3.2 km/h 17.7 km/h 66 % 0.0 mm
14:47 8.6 °C 2.6 °C 1019.9 hPa North 6.4 km/h 17.7 km/h 66 % 0.0 mm
14:52 8.7 °C 2.7 °C 1019.9 hPa NNW 9.7 km/h 17.7 km/h 66 % 0.0 mm
14:57 8.6 °C 2.4 °C 1019.9 hPa NW 3.2 km/h 12.9 km/h 65 % 0.0 mm
15:02 8.7 °C 2.5 °C 1019.9 hPa NE 8.0 km/h 12.9 km/h 65 % 0.0 mm
15:07 8.6 °C 2.4 °C 1019.9 hPa NW 3.2 km/h 12.9 km/h 65 % 0.0 mm
15:12 8.6 °C 2.6 °C 1019.9 hPa North 3.2 km/h 14.5 km/h 66 % 0.0 mm
15:17 8.8 °C 2.6 °C 1019.9 hPa Calm   14.5 km/h 65 % 0.0 mm
15:22 8.8 °C 2.4 °C 1019.9 hPa NW 4.8 km/h 8.0 km/h 64 % 0.0 mm
15:27 8.5 °C 2.3 °C 1019.9 hPa NNW 6.4 km/h 8.0 km/h 65 % 0.0 mm
15:32 8.4 °C 2.2 °C 1019.9 hPa NNW 3.2 km/h 11.3 km/h 65 % 0.0 mm
15:37 8.4 °C 2.6 °C 1019.9 hPa NW 4.8 km/h 11.3 km/h 67 % 0.0 mm
15:42 8.4 °C 2.4 °C 1019.9 hPa Calm   11.3 km/h 66 % 0.0 mm
15:47 8.4 °C 2.4 °C 1019.9 hPa NNW 3.2 km/h 8.0 km/h 66 % 0.0 mm
15:52 8.4 °C 2.4 °C 1019.9 hPa NNE 4.8 km/h 8.0 km/h 66 % 0.0 mm
15:57 8.4 °C 2.4 °C 1019.9 hPa NNW 3.2 km/h 8.0 km/h 66 % 0.0 mm
16:02 8.5 °C 2.5 °C 1019.9 hPa NNE 6.4 km/h 8.0 km/h 66 % 0.0 mm
16:07 8.6 °C 2.6 °C 1019.9 hPa NE 1.6 km/h 8.0 km/h 66 % 0.0 mm
16:12 8.7 °C 2.7 °C 1019.9 hPa North 4.8 km/h 8.0 km/h 66 % 0.0 mm
16:22 8.4 °C 2.0 °C 1019.9 hPa NNE 4.8 km/h 11.3 km/h 64 % 0.0 mm
16:27 8.3 °C 2.1 °C 1019.9 hPa NNW 1.6 km/h 11.3 km/h 65 % 0.0 mm
16:32 8.2 °C 2.2 °C 1019.9 hPa Calm   11.3 km/h 66 % 0.0 mm
16:42 8.3 °C 2.1 °C 1019.9 hPa Calm   3.2 km/h 65 % 0.0 mm
16:52 7.9 °C 2.2 °C 1019.9 hPa Calm   4.8 km/h 67 % 0.0 mm
16:57 7.9 °C 2.2 °C 1019.9 hPa WNW 1.6 km/h 3.2 km/h 67 % 0.0 mm
17:02 7.7 °C 2.0 °C 1019.9 hPa Calm   3.2 km/h 67 % 0.0 mm
17:07 7.3 °C 2.0 °C 1019.9 hPa WNW 1.6 km/h 3.2 km/h 69 % 0.0 mm
17:12 7.0 °C 1.9 °C 1019.9 hPa Calm   3.2 km/h 70 % 0.0 mm
17:17 6.8 °C 1.7 °C 1019.9 hPa Calm   3.2 km/h 70 % 0.0 mm
17:22 6.6 °C 1.7 °C 1019.9 hPa Calm   3.2 km/h 71 % 0.0 mm
17:27 6.3 °C 1.6 °C 1019.9 hPa Calm   1.6 km/h 72 % 0.0 mm
17:32 6.0 °C 1.5 °C 1019.9 hPa Calm   1.6 km/h 73 % 0.0 mm
17:37 5.8 °C 1.5 °C 1019.9 hPa Calm   1.6 km/h 74 % 0.0 mm
17:42 5.8 °C 1.5 °C 1019.5 hPa Calm     74 % 0.0 mm
17:47 5.4 °C 1.3 °C 1019.9 hPa Calm     75 % 0.0 mm
17:52 5.1 °C 1.2 °C 1019.9 hPa Calm     76 % 0.0 mm
17:57 4.9 °C 1.2 °C 1019.5 hPa Calm     77 % 0.0 mm
18:02 4.7 °C 1.0 °C 1019.5 hPa Calm     77 % 0.0 mm
18:07 4.7 °C 1.2 °C 1019.9 hPa Calm     78 % 0.0 mm
18:12 4.6 °C 1.3 °C 1019.9 hPa WNW 3.2 km/h   79 % 0.0 mm
18:27 3.8 °C 1.0 °C 1019.5 hPa Calm   3.2 km/h 82 % 0.0 mm
18:32 3.8 °C 1.0 °C 1019.9 hPa Calm   1.6 km/h 82 % 0.0 mm
18:42 4.0 °C 1.0 °C 1019.5 hPa Calm   1.6 km/h 81 % 0.0 mm
18:52 3.6 °C 0.8 °C 1019.9 hPa NW 1.6 km/h 3.2 km/h 82 % 0.0 mm
18:57 3.3 °C 0.9 °C 1019.9 hPa WNW 1.6 km/h 3.2 km/h 84 % 0.0 mm
19:02 3.3 °C 1.0 °C 1019.9 hPa WNW 1.6 km/h 3.2 km/h 85 % 0.0 mm
19:12 2.9 °C 0.6 °C 1019.9 hPa WNW 1.6 km/h 3.2 km/h 85 % 0.0 mm
19:17 2.6 °C 0.5 °C 1019.9 hPa WNW 1.6 km/h 3.2 km/h 86 % 0.0 mm
19:22 2.4 °C 0.3 °C 1019.5 hPa WNW 1.6 km/h 3.2 km/h 86 % 0.0 mm
19:27 2.3 °C 0.5 °C 1019.5 hPa WNW 1.6 km/h 3.2 km/h 88 % 0.0 mm
19:37 2.5 °C 0.6 °C 1019.5 hPa WNW 1.6 km/h 3.2 km/h 87 % 0.0 mm
19:42 2.4 °C 0.5 °C 1019.5 hPa WNW 1.6 km/h 1.6 km/h 87 % 0.0 mm
19:47 2.2 °C 0.3 °C 1019.5 hPa WNW 1.6 km/h 3.2 km/h 87 % 0.0 mm
19:52 2.1 °C 0.3 °C 1019.5 hPa Calm   3.2 km/h 88 % 0.0 mm
19:57 2.1 °C 0.3 °C 1019.5 hPa Calm   3.2 km/h 88 % 0.0 mm
20:02 2.2 °C 0.4 °C 1019.5 hPa Calm   1.6 km/h 88 % 0.0 mm
20:07 2.1 °C 0.3 °C 1019.5 hPa Calm   1.6 km/h 88 % 0.0 mm
20:12 1.8 °C 0.0 °C 1019.5 hPa Calm   1.6 km/h 88 % 0.0 mm
20:17 1.6 °C -0.2 °C 1019.5 hPa Calm   1.6 km/h 88 % 0.0 mm
20:22 1.3 °C -0.3 °C 1019.5 hPa Calm     89 % 0.0 mm
20:27 1.2 °C -0.4 °C 1019.5 hPa Calm     89 % 0.0 mm
20:32 1.2 °C -0.3 °C 1019.2 hPa Calm     90 % 0.0 mm
20:37 1.1 °C -0.4 °C 1019.2 hPa Calm     90 % 0.0 mm
20:42 1.0 °C -0.5 °C 1019.2 hPa Calm     90 % 0.0 mm
20:52 0.8 °C -0.7 °C 1019.2 hPa West 1.6 km/h 1.6 km/h 90 % 0.0 mm
20:57 0.7 °C -0.6 °C 1019.2 hPa WNW 1.6 km/h 1.6 km/h 91 % 0.0 mm
21:02 0.7 °C -0.6 °C 1019.2 hPa Calm   3.2 km/h 91 % 0.0 mm
21:07 0.7 °C -0.6 °C 1019.2 hPa WNW 1.6 km/h 3.2 km/h 91 % 0.0 mm
21:12 0.6 °C -0.7 °C 1019.2 hPa Calm   3.2 km/h 91 % 0.0 mm
21:17 0.5 °C -0.8 °C 1019.2 hPa Calm   1.6 km/h 91 % 0.0 mm
21:22 0.6 °C -0.5 °C 1019.2 hPa Calm   1.6 km/h 92 % 0.0 mm
21:32 0.8 °C -0.2 °C 1019.5 hPa West 1.6 km/h   93 % 0.0 mm
21:37 1.0 °C -0.2 °C 1019.5 hPa West 1.6 km/h 4.8 km/h 92 % 0.0 mm
21:42 1.0 °C -0.3 °C 1019.5 hPa Calm   4.8 km/h 91 % 0.0 mm
21:47 0.9 °C -0.4 °C 1019.2 hPa Calm   4.8 km/h 91 % 0.0 mm
21:52 0.9 °C -0.4 °C 1019.2 hPa Calm   3.2 km/h 91 % 0.0 mm
21:57 0.9 °C -0.4 °C 1019.2 hPa Calm   1.6 km/h 91 % 0.0 mm
22:02 0.9 °C -0.6 °C 1019.2 hPa Calm   1.6 km/h 90 % 0.0 mm
22:07 0.7 °C -0.8 °C 1019.2 hPa WNW 1.6 km/h 1.6 km/h 90 % 0.0 mm
22:12 0.6 °C -0.7 °C 1019.2 hPa Calm   3.2 km/h 91 % 0.0 mm
22:22 0.6 °C -0.5 °C 1019.2 hPa Calm   3.2 km/h 92 % 0.0 mm
22:27 0.7 °C -0.5 °C 1019.2 hPa North 3.2 km/h 3.2 km/h 92 % 0.0 mm
22:32 0.6 °C -0.7 °C 1019.2 hPa NNE 1.6 km/h 3.2 km/h 91 % 0.0 mm
22:37 0.4 °C -0.7 °C 1019.2 hPa Calm   3.2 km/h 92 % 0.0 mm
22:47 0.2 °C -0.9 °C 1019.2 hPa Calm   3.2 km/h 92 % 0.0 mm
22:52 0.2 °C -0.9 °C 1019.2 hPa Calm   1.6 km/h 92 % 0.0 mm
22:57 0.1 °C -1.0 °C 1018.8 hPa Calm   1.6 km/h 92 % 0.0 mm
23:02 0.0 °C -1.1 °C 1018.8 hPa Calm     92 % 0.0 mm
23:07 0.1 °C -0.9 °C 1018.8 hPa Calm     93 % 0.0 mm
23:12 0.3 °C -0.7 °C 1018.8 hPa Calm   1.6 km/h 93 % 0.0 mm
23:17 0.2 °C -0.8 °C 1018.8 hPa Calm   1.6 km/h 93 % 0.0 mm
23:22 0.2 °C -0.9 °C 1018.8 hPa Calm   1.6 km/h 92 % 0.0 mm
23:27 0.2 °C -0.8 °C 1018.8 hPa Calm   1.6 km/h 93 % 0.0 mm
23:32 0.2 °C -0.8 °C 1018.8 hPa Calm   1.6 km/h 93 % 0.0 mm
23:37 0.2 °C -0.8 °C 1018.8 hPa North 1.6 km/h 1.6 km/h 93 % 0.0 mm
23:42 0.1 °C -1.0 °C 1018.8 hPa Calm   1.6 km/h 92 % 0.0 mm
23:47 -0.1 °C -1.2 °C 1018.8 hPa Calm   1.6 km/h 92 % 0.0 mm
23:52 -0.2 °C -1.2 °C 1018.8 hPa Calm   1.6 km/h 93 % 0.0 mm
23:57 -0.4 °C -1.5 °C 1018.8 hPa Calm     92 % 0.0 mm
Meteo18
Compliments of Weather Underground - 4 mb

Script developed by  Jim McMurry - jmcmurry@mwt.net Adapted for the template by  Wim van der Kuil - Leuven-Template.eu

You find our weather info also at:

European Weather Network

Weather Underground

Equipment we use:

Weather-station
Davis Vue

Weather-program
Meteohub

Weather-server
Raspberry PI 2 B+

Provider
1 and 1

Davis Vue

Meteohub

Raspberry PI 2 B+

1 and 1